sensor_id;sensor_type;location;lat;lon;timestamp;temperature;humidity
7167;DHT22;3625;51.762;14.320;2023-07-29T00:00:39;17.30;99.90
7167;DHT22;3625;51.762;14.320;2023-07-29T00:03:07;17.30;99.90
7167;DHT22;3625;51.762;14.320;2023-07-29T00:05:36;17.20;99.90
7167;DHT22;3625;51.762;14.320;2023-07-29T00:08:09;17.30;99.90
7167;DHT22;3625;51.762;14.320;2023-07-29T00:10:38;17.30;99.90
7167;DHT22;3625;51.762;14.320;2023-07-29T00:13:07;17.30;99.90
7167;DHT22;3625;51.762;14.320;2023-07-29T00:15:35;17.30;99.90
7167;DHT22;3625;51.762;14.320;2023-07-29T00:18:04;17.30;99.90
7167;DHT22;3625;51.762;14.320;2023-07-29T00:23:06;17.00;99.90
7167;DHT22;3625;51.762;14.320;2023-07-29T00:25:36;17.00;99.90
7167;DHT22;3625;51.762;14.320;2023-07-29T00:30:43;16.80;99.90
7167;DHT22;3625;51.762;14.320;2023-07-29T00:35:41;16.70;99.90
7167;DHT22;3625;51.762;14.320;2023-07-29T00:38:13;16.60;99.90
7167;DHT22;3625;51.762;14.320;2023-07-29T00:40:46;16.60;99.90
7167;DHT22;3625;51.762;14.320;2023-07-29T00:43:14;16.60;99.90
7167;DHT22;3625;51.762;14.320;2023-07-29T00:45:51;17.40;99.90
7167;DHT22;3625;51.762;14.320;2023-07-29T00:50:57;16.40;99.90
7167;DHT22;3625;51.762;14.320;2023-07-29T00:53:28;16.40;99.90
7167;DHT22;3625;51.762;14.320;2023-07-29T00:55:59;16.40;99.90
7167;DHT22;3625;51.762;14.320;2023-07-29T01:06:09;16.40;99.90
7167;DHT22;3625;51.762;14.320;2023-07-29T01:08:54;16.30;99.90
7167;DHT22;3625;51.762;14.320;2023-07-29T01:11:41;16.30;99.90
7167;DHT22;3625;51.762;14.320;2023-07-29T01:14:50;15.30;99.90
7167;DHT22;3625;51.762;14.320;2023-07-29T01:17:48;16.20;99.90
7167;DHT22;3625;51.762;14.320;2023-07-29T01:20:21;16.30;99.90
7167;DHT22;3625;51.762;14.320;2023-07-29T01:22:54;16.20;99.90
7167;DHT22;3625;51.762;14.320;2023-07-29T01:25:27;16.20;99.90
7167;DHT22;3625;51.762;14.320;2023-07-29T01:30:33;16.20;99.90
7167;DHT22;3625;51.762;14.320;2023-07-29T01:33:13;16.20;99.90
7167;DHT22;3625;51.762;14.320;2023-07-29T01:35:48;16.10;99.90
7167;DHT22;3625;51.762;14.320;2023-07-29T01:38:47;16.20;99.90
7167;DHT22;3625;51.762;14.320;2023-07-29T01:41:20;16.20;99.90
7167;DHT22;3625;51.762;14.320;2023-07-29T01:44:22;16.20;99.90
7167;DHT22;3625;51.762;14.320;2023-07-29T01:49:30;16.10;99.90
7167;DHT22;3625;51.762;14.320;2023-07-29T01:52:01;16.10;99.90
7167;DHT22;3625;51.762;14.320;2023-07-29T01:54:30;16.00;99.90
7167;DHT22;3625;51.762;14.320;2023-07-29T01:57:01;15.90;99.90
7167;DHT22;3625;51.762;14.320;2023-07-29T01:59:33;15.90;99.90
7167;DHT22;3625;51.762;14.320;2023-07-29T02:02:07;15.90;99.90
7167;DHT22;3625;51.762;14.320;2023-07-29T02:04:36;15.90;99.90
7167;DHT22;3625;51.762;14.320;2023-07-29T02:09:41;15.80;99.90
7167;DHT22;3625;51.762;14.320;2023-07-29T02:14:57;15.90;99.90
7167;DHT22;3625;51.762;14.320;2023-07-29T02:17:42;15.80;99.90
7167;DHT22;3625;51.762;14.320;2023-07-29T02:22:50;15.80;99.90
7167;DHT22;3625;51.762;14.320;2023-07-29T02:25:27;15.70;99.90
7167;DHT22;3625;51.762;14.320;2023-07-29T02:27:58;15.70;99.90
7167;DHT22;3625;51.762;14.320;2023-07-29T02:30:30;15.70;99.90
7167;DHT22;3625;51.762;14.320;2023-07-29T02:33:03;15.70;99.90
7167;DHT22;3625;51.762;14.320;2023-07-29T02:35:32;15.60;99.90
7167;DHT22;3625;51.762;14.320;2023-07-29T02:40:32;15.60;99.90
7167;DHT22;3625;51.762;14.320;2023-07-29T02:43:02;15.60;99.90
7167;DHT22;3625;51.762;14.320;2023-07-29T02:45:35;15.60;99.90
7167;DHT22;3625;51.762;14.320;2023-07-29T02:48:09;15.50;99.90
7167;DHT22;3625;51.762;14.320;2023-07-29T02:50:41;15.50;99.90
7167;DHT22;3625;51.762;14.320;2023-07-29T02:55:51;15.50;99.90
7167;DHT22;3625;51.762;14.320;2023-07-29T02:58:22;15.50;99.90
7167;DHT22;3625;51.762;14.320;2023-07-29T03:00:52;15.60;99.90
7167;DHT22;3625;51.762;14.320;2023-07-29T03:06:01;15.60;99.90
7167;DHT22;3625;51.762;14.320;2023-07-29T03:08:32;15.70;99.90
7167;DHT22;3625;51.762;14.320;2023-07-29T03:11:05;15.40;99.90
7167;DHT22;3625;51.762;14.320;2023-07-29T03:13:45;15.70;99.90
7167;DHT22;3625;51.762;14.320;2023-07-29T03:16:18;15.70;99.90
7167;DHT22;3625;51.762;14.320;2023-07-29T03:18:58;15.70;99.90
7167;DHT22;3625;51.762;14.320;2023-07-29T03:24:09;15.70;99.90
7167;DHT22;3625;51.762;14.320;2023-07-29T03:26:38;15.70;99.90
7167;DHT22;3625;51.762;14.320;2023-07-29T03:29:13;15.70;99.90
7167;DHT22;3625;51.762;14.320;2023-07-29T03:31:48;15.70;99.90
7167;DHT22;3625;51.762;14.320;2023-07-29T03:36:52;15.80;99.90
7167;DHT22;3625;51.762;14.320;2023-07-29T03:39:23;15.80;99.90
7167;DHT22;3625;51.762;14.320;2023-07-29T03:41:52;15.90;99.90
7167;DHT22;3625;51.762;14.320;2023-07-29T03:46:55;15.90;99.90
7167;DHT22;3625;51.762;14.320;2023-07-29T03:49:24;15.90;99.90
7167;DHT22;3625;51.762;14.320;2023-07-29T03:51:55;16.00;99.90
7167;DHT22;3625;51.762;14.320;2023-07-29T03:54:23;16.00;99.90
7167;DHT22;3625;51.762;14.320;2023-07-29T03:56:52;16.00;99.90
7167;DHT22;3625;51.762;14.320;2023-07-29T03:59:21;16.10;99.90
7167;DHT22;3625;51.762;14.320;2023-07-29T04:01:50;16.20;99.90
7167;DHT22;3625;51.762;14.320;2023-07-29T04:04:21;16.30;99.90
7167;DHT22;3625;51.762;14.320;2023-07-29T04:06:51;16.40;99.90
7167;DHT22;3625;51.762;14.320;2023-07-29T04:09:20;16.50;99.90
7167;DHT22;3625;51.762;14.320;2023-07-29T04:11:51;16.70;99.90
7167;DHT22;3625;51.762;14.320;2023-07-29T04:14:20;16.90;99.90
7167;DHT22;3625;51.762;14.320;2023-07-29T04:16:48;17.10;99.90
7167;DHT22;3625;51.762;14.320;2023-07-29T04:19:21;17.50;99.90
7167;DHT22;3625;51.762;14.320;2023-07-29T04:21:50;17.60;99.90
7167;DHT22;3625;51.762;14.320;2023-07-29T04:27:00;17.90;99.90
7167;DHT22;3625;51.762;14.320;2023-07-29T04:29:32;17.90;99.90
7167;DHT22;3625;51.762;14.320;2023-07-29T04:32:02;18.00;99.90
7167;DHT22;3625;51.762;14.320;2023-07-29T04:34:39;18.20;99.90
7167;DHT22;3625;51.762;14.320;2023-07-29T04:37:08;16.70;99.90
7167;DHT22;3625;51.762;14.320;2023-07-29T04:39:48;18.50;99.90
7167;DHT22;3625;51.762;14.320;2023-07-29T04:42:19;18.60;99.90
7167;DHT22;3625;51.762;14.320;2023-07-29T04:47:21;18.80;99.90
7167;DHT22;3625;51.762;14.320;2023-07-29T04:49:56;18.90;99.90
7167;DHT22;3625;51.762;14.320;2023-07-29T04:52:28;18.90;99.90
7167;DHT22;3625;51.762;14.320;2023-07-29T04:54:57;19.00;99.90
7167;DHT22;3625;51.762;14.320;2023-07-29T04:57:28;19.00;99.90
7167;DHT22;3625;51.762;14.320;2023-07-29T05:02:28;19.20;99.90
7167;DHT22;3625;51.762;14.320;2023-07-29T05:05:02;19.20;99.90
7167;DHT22;3625;51.762;14.320;2023-07-29T05:07:32;19.30;99.90
7167;DHT22;3625;51.762;14.320;2023-07-29T05:10:12;19.40;99.90
7167;DHT22;3625;51.762;14.320;2023-07-29T05:15:12;19.60;99.90
7167;DHT22;3625;51.762;14.320;2023-07-29T05:17:46;19.80;99.90
7167;DHT22;3625;51.762;14.320;2023-07-29T05:20:17;19.80;99.90
7167;DHT22;3625;51.762;14.320;2023-07-29T05:22:48;19.90;99.90
7167;DHT22;3625;51.762;14.320;2023-07-29T05:25:26;20.20;99.90
7167;DHT22;3625;51.762;14.320;2023-07-29T05:28:01;20.20;99.90
7167;DHT22;3625;51.762;14.320;2023-07-29T05:30:34;20.40;99.90
7167;DHT22;3625;51.762;14.320;2023-07-29T05:33:09;20.50;99.90
7167;DHT22;3625;51.762;14.320;2023-07-29T05:35:42;20.40;99.90
7167;DHT22;3625;51.762;14.320;2023-07-29T05:38:10;20.30;99.90
7167;DHT22;3625;51.762;14.320;2023-07-29T05:40:41;20.20;99.90
7167;DHT22;3625;51.762;14.320;2023-07-29T05:43:14;20.00;99.90
7167;DHT22;3625;51.762;14.320;2023-07-29T05:45:45;19.90;99.90
7167;DHT22;3625;51.762;14.320;2023-07-29T05:48:19;19.70;99.90
7167;DHT22;3625;51.762;14.320;2023-07-29T05:51:00;19.70;99.90
7167;DHT22;3625;51.762;14.320;2023-07-29T05:53:34;19.80;99.90
7167;DHT22;3625;51.762;14.320;2023-07-29T05:56:05;19.90;99.90
7167;DHT22;3625;51.762;14.320;2023-07-29T05:58:36;19.80;99.90
7167;DHT22;3625;51.762;14.320;2023-07-29T06:03:46;19.80;99.90
7167;DHT22;3625;51.762;14.320;2023-07-29T06:06:17;19.90;99.90
7167;DHT22;3625;51.762;14.320;2023-07-29T06:08:45;19.90;99.90
7167;DHT22;3625;51.762;14.320;2023-07-29T06:11:14;19.90;99.90
7167;DHT22;3625;51.762;14.320;2023-07-29T06:13:47;20.00;99.90
7167;DHT22;3625;51.762;14.320;2023-07-29T06:16:16;20.20;99.90
7167;DHT22;3625;51.762;14.320;2023-07-29T06:18:47;20.00;99.90
7167;DHT22;3625;51.762;14.320;2023-07-29T06:21:27;20.10;99.90
7167;DHT22;3625;51.762;14.320;2023-07-29T06:23:56;20.20;99.90
7167;DHT22;3625;51.762;14.320;2023-07-29T06:26:27;20.20;99.90
7167;DHT22;3625;51.762;14.320;2023-07-29T06:28:56;20.30;99.90
7167;DHT22;3625;51.762;14.320;2023-07-29T06:31:26;20.30;99.90
7167;DHT22;3625;51.762;14.320;2023-07-29T06:34:03;20.40;99.90
7167;DHT22;3625;51.762;14.320;2023-07-29T06:36:34;20.50;99.90
7167;DHT22;3625;51.762;14.320;2023-07-29T06:39:03;20.60;99.90
7167;DHT22;3625;51.762;14.320;2023-07-29T06:41:32;20.70;99.90
7167;DHT22;3625;51.762;14.320;2023-07-29T06:44:04;20.80;99.90
7167;DHT22;3625;51.762;14.320;2023-07-29T06:46:32;20.90;99.90
7167;DHT22;3625;51.762;14.320;2023-07-29T06:49:02;21.00;99.90
7167;DHT22;3625;51.762;14.320;2023-07-29T06:51:30;21.10;99.90
7167;DHT22;3625;51.762;14.320;2023-07-29T06:54:13;21.20;99.90
7167;DHT22;3625;51.762;14.320;2023-07-29T06:56:48;21.30;99.90
7167;DHT22;3625;51.762;14.320;2023-07-29T06:59:18;21.40;99.90
7167;DHT22;3625;51.762;14.320;2023-07-29T07:01:52;21.60;99.90
7167;DHT22;3625;51.762;14.320;2023-07-29T07:04:25;21.50;99.90
7167;DHT22;3625;51.762;14.320;2023-07-29T07:06:56;21.80;99.90
7167;DHT22;3625;51.762;14.320;2023-07-29T07:09:30;22.20;99.90
7167;DHT22;3625;51.762;14.320;2023-07-29T07:11:58;22.70;99.90
7167;DHT22;3625;51.762;14.320;2023-07-29T07:14:27;23.10;99.90
7167;DHT22;3625;51.762;14.320;2023-07-29T07:16:55;23.30;99.90
7167;DHT22;3625;51.762;14.320;2023-07-29T07:19:24;25.10;99.90
7167;DHT22;3625;51.762;14.320;2023-07-29T07:21:52;24.50;99.90
7167;DHT22;3625;51.762;14.320;2023-07-29T07:24:21;25.10;99.90
7167;DHT22;3625;51.762;14.320;2023-07-29T07:26:51;25.50;99.90
7167;DHT22;3625;51.762;14.320;2023-07-29T07:29:20;25.80;99.90
7167;DHT22;3625;51.762;14.320;2023-07-29T07:31:52;25.80;99.90
7167;DHT22;3625;51.762;14.320;2023-07-29T07:34:24;25.70;99.90
7167;DHT22;3625;51.762;14.320;2023-07-29T07:36:53;25.80;99.90
7167;DHT22;3625;51.762;14.320;2023-07-29T07:39:22;26.10;99.90
7167;DHT22;3625;51.762;14.320;2023-07-29T07:41:51;26.50;99.90
7167;DHT22;3625;51.762;14.320;2023-07-29T07:44:20;26.40;99.90
7167;DHT22;3625;51.762;14.320;2023-07-29T07:46:51;26.50;99.90
7167;DHT22;3625;51.762;14.320;2023-07-29T07:51:52;26.80;99.90
7167;DHT22;3625;51.762;14.320;2023-07-29T07:54:23;26.90;99.90
7167;DHT22;3625;51.762;14.320;2023-07-29T07:56:53;27.20;99.90
7167;DHT22;3625;51.762;14.320;2023-07-29T07:59:22;27.40;99.90
7167;DHT22;3625;51.762;14.320;2023-07-29T08:01:51;27.50;99.90
7167;DHT22;3625;51.762;14.320;2023-07-29T08:04:20;27.40;99.90
7167;DHT22;3625;51.762;14.320;2023-07-29T08:06:49;26.80;99.90
7167;DHT22;3625;51.762;14.320;2023-07-29T08:09:20;26.60;99.90
7167;DHT22;3625;51.762;14.320;2023-07-29T08:12:01;26.50;99.90
7167;DHT22;3625;51.762;14.320;2023-07-29T08:14:35;26.50;99.90
7167;DHT22;3625;51.762;14.320;2023-07-29T08:17:12;26.60;99.90
7167;DHT22;3625;51.762;14.320;2023-07-29T08:19:41;26.70;99.90
7167;DHT22;3625;51.762;14.320;2023-07-29T08:22:12;26.80;99.90
7167;DHT22;3625;51.762;14.320;2023-07-29T08:24:41;28.60;99.90
7167;DHT22;3625;51.762;14.320;2023-07-29T08:27:11;26.60;99.90
7167;DHT22;3625;51.762;14.320;2023-07-29T08:29:39;26.40;99.90
7167;DHT22;3625;51.762;14.320;2023-07-29T08:34:38;25.70;99.90
7167;DHT22;3625;51.762;14.320;2023-07-29T08:37:07;25.40;99.90
7167;DHT22;3625;51.762;14.320;2023-07-29T08:42:13;25.10;99.90
7167;DHT22;3625;51.762;14.320;2023-07-29T08:44:48;25.00;99.90
7167;DHT22;3625;51.762;14.320;2023-07-29T08:49:51;24.80;99.90
7167;DHT22;3625;51.762;14.320;2023-07-29T08:52:29;24.90;99.90
7167;DHT22;3625;51.762;14.320;2023-07-29T08:55:02;25.50;99.90
7167;DHT22;3625;51.762;14.320;2023-07-29T08:57:55;25.90;99.90
7167;DHT22;3625;51.762;14.320;2023-07-29T09:00:30;26.20;99.90
7167;DHT22;3625;51.762;14.320;2023-07-29T09:08:08;26.80;99.90
7167;DHT22;3625;51.762;14.320;2023-07-29T09:10:40;27.10;99.90
7167;DHT22;3625;51.762;14.320;2023-07-29T09:13:15;27.40;99.90
7167;DHT22;3625;51.762;14.320;2023-07-29T09:15:45;27.70;99.90
7167;DHT22;3625;51.762;14.320;2023-07-29T09:18:16;28.00;99.90
7167;DHT22;3625;51.762;14.320;2023-07-29T09:20:52;28.20;99.90
7167;DHT22;3625;51.762;14.320;2023-07-29T09:23:21;28.20;99.90
7167;DHT22;3625;51.762;14.320;2023-07-29T09:25:50;28.40;99.90
7167;DHT22;3625;51.762;14.320;2023-07-29T09:28:34;28.50;99.90
7167;DHT22;3625;51.762;14.320;2023-07-29T09:31:04;28.70;99.90
7167;DHT22;3625;51.762;14.320;2023-07-29T09:33:34;29.30;99.90
7167;DHT22;3625;51.762;14.320;2023-07-29T09:36:09;29.70;99.90
7167;DHT22;3625;51.762;14.320;2023-07-29T09:41:15;30.10;99.90
7167;DHT22;3625;51.762;14.320;2023-07-29T09:43:45;30.40;99.90
7167;DHT22;3625;51.762;14.320;2023-07-29T09:48:43;31.20;99.90
7167;DHT22;3625;51.762;14.320;2023-07-29T09:51:14;31.50;99.90
7167;DHT22;3625;51.762;14.320;2023-07-29T09:53:45;31.50;99.90
7167;DHT22;3625;51.762;14.320;2023-07-29T09:56:15;31.50;99.90
7167;DHT22;3625;51.762;14.320;2023-07-29T09:58:47;31.40;99.90
7167;DHT22;3625;51.762;14.320;2023-07-29T10:06:17;30.10;99.90
7167;DHT22;3625;51.762;14.320;2023-07-29T10:08:49;30.10;99.90
7167;DHT22;3625;51.762;14.320;2023-07-29T10:11:21;30.10;99.90
7167;DHT22;3625;51.762;14.320;2023-07-29T10:13:53;30.60;99.90
7167;DHT22;3625;51.762;14.320;2023-07-29T10:16:35;30.60;99.90
7167;DHT22;3625;51.762;14.320;2023-07-29T10:19:07;30.80;99.90
7167;DHT22;3625;51.762;14.320;2023-07-29T10:21:39;31.10;99.90
7167;DHT22;3625;51.762;14.320;2023-07-29T10:24:15;31.10;99.90
7167;DHT22;3625;51.762;14.320;2023-07-29T10:27:18;31.20;99.90
7167;DHT22;3625;51.762;14.320;2023-07-29T10:29:52;31.40;99.90
7167;DHT22;3625;51.762;14.320;2023-07-29T10:32:29;31.50;99.90
7167;DHT22;3625;51.762;14.320;2023-07-29T10:35:02;31.50;99.90
7167;DHT22;3625;51.762;14.320;2023-07-29T10:37:31;31.60;99.90
7167;DHT22;3625;51.762;14.320;2023-07-29T10:40:03;31.60;99.90
7167;DHT22;3625;51.762;14.320;2023-07-29T10:42:35;31.60;99.90
7167;DHT22;3625;51.762;14.320;2023-07-29T10:45:19;31.60;99.90
7167;DHT22;3625;51.762;14.320;2023-07-29T10:50:23;31.90;99.90
7167;DHT22;3625;51.762;14.320;2023-07-29T10:55:27;31.70;99.90
7167;DHT22;3625;51.762;14.320;2023-07-29T10:58:08;31.70;99.90
7167;DHT22;3625;51.762;14.320;2023-07-29T11:00:47;31.80;99.90
7167;DHT22;3625;51.762;14.320;2023-07-29T11:05:52;32.00;99.90
7167;DHT22;3625;51.762;14.320;2023-07-29T11:08:28;32.20;99.90
7167;DHT22;3625;51.762;14.320;2023-07-29T11:11:04;32.20;99.90
7167;DHT22;3625;51.762;14.320;2023-07-29T11:16:22;31.60;99.90
7167;DHT22;3625;51.762;14.320;2023-07-29T11:21:25;31.40;99.90
7167;DHT22;3625;51.762;14.320;2023-07-29T11:24:09;30.80;99.90
7167;DHT22;3625;51.762;14.320;2023-07-29T11:29:33;30.60;99.90
7167;DHT22;3625;51.762;14.320;2023-07-29T11:32:04;30.60;99.90
7167;DHT22;3625;51.762;14.320;2023-07-29T11:37:11;30.90;99.90
7167;DHT22;3625;51.762;14.320;2023-07-29T11:42:32;32.00;99.90
7167;DHT22;3625;51.762;14.320;2023-07-29T11:45:12;32.70;99.90
7167;DHT22;3625;51.762;14.320;2023-07-29T11:47:51;32.70;99.90
7167;DHT22;3625;51.762;14.320;2023-07-29T11:50:23;32.90;99.90
7167;DHT22;3625;51.762;14.320;2023-07-29T11:52:54;32.70;99.90
7167;DHT22;3625;51.762;14.320;2023-07-29T11:55:25;32.80;99.90
7167;DHT22;3625;51.762;14.320;2023-07-29T11:57:54;32.50;99.90
7167;DHT22;3625;51.762;14.320;2023-07-29T12:00:23;32.60;99.90
7167;DHT22;3625;51.762;14.320;2023-07-29T12:02:53;32.80;99.90
7167;DHT22;3625;51.762;14.320;2023-07-29T12:05:23;32.80;99.90
7167;DHT22;3625;51.762;14.320;2023-07-29T12:07:53;32.80;99.90
7167;DHT22;3625;51.762;14.320;2023-07-29T12:10:25;31.40;99.90
7167;DHT22;3625;51.762;14.320;2023-07-29T12:15:31;31.80;99.90
7167;DHT22;3625;51.762;14.320;2023-07-29T12:18:01;31.70;99.90
7167;DHT22;3625;51.762;14.320;2023-07-29T12:20:30;32.00;99.90
7167;DHT22;3625;51.762;14.320;2023-07-29T12:22:59;32.20;99.90
7167;DHT22;3625;51.762;14.320;2023-07-29T12:25:30;32.40;99.90
7167;DHT22;3625;51.762;14.320;2023-07-29T12:28:02;32.50;99.90
7167;DHT22;3625;51.762;14.320;2023-07-29T12:30:32;32.10;99.90
7167;DHT22;3625;51.762;14.320;2023-07-29T12:33:02;31.30;99.90
7167;DHT22;3625;51.762;14.320;2023-07-29T12:35:35;31.10;99.90
7167;DHT22;3625;51.762;14.320;2023-07-29T12:38:04;31.00;99.90
7167;DHT22;3625;51.762;14.320;2023-07-29T12:40:38;30.50;99.90
7167;DHT22;3625;51.762;14.320;2023-07-29T12:43:09;30.40;99.90
7167;DHT22;3625;51.762;14.320;2023-07-29T12:45:37;30.40;99.90
7167;DHT22;3625;51.762;14.320;2023-07-29T12:48:10;30.30;99.90
7167;DHT22;3625;51.762;14.320;2023-07-29T12:50:39;30.10;99.90
7167;DHT22;3625;51.762;14.320;2023-07-29T12:53:09;30.00;99.90
7167;DHT22;3625;51.762;14.320;2023-07-29T12:55:38;30.30;99.90
7167;DHT22;3625;51.762;14.320;2023-07-29T12:58:06;30.70;99.90
7167;DHT22;3625;51.762;14.320;2023-07-29T13:00:35;30.90;99.90
7167;DHT22;3625;51.762;14.320;2023-07-29T13:03:03;31.00;99.90
7167;DHT22;3625;51.762;14.320;2023-07-29T13:05:34;31.00;99.90
7167;DHT22;3625;51.762;14.320;2023-07-29T13:08:03;31.00;99.90
7167;DHT22;3625;51.762;14.320;2023-07-29T13:10:31;31.00;99.90
7167;DHT22;3625;51.762;14.320;2023-07-29T13:13:00;30.80;99.90
7167;DHT22;3625;51.762;14.320;2023-07-29T13:15:28;30.40;99.90
7167;DHT22;3625;51.762;14.320;2023-07-29T13:17:58;30.20;99.90
7167;DHT22;3625;51.762;14.320;2023-07-29T13:20:28;29.80;99.90
7167;DHT22;3625;51.762;14.320;2023-07-29T13:22:58;28.90;99.90
7167;DHT22;3625;51.762;14.320;2023-07-29T13:25:27;28.90;99.90
7167;DHT22;3625;51.762;14.320;2023-07-29T13:27:55;28.40;99.90
7167;DHT22;3625;51.762;14.320;2023-07-29T13:30:24;28.10;99.90
7167;DHT22;3625;51.762;14.320;2023-07-29T13:32:52;27.70;99.90
7167;DHT22;3625;51.762;14.320;2023-07-29T13:35:21;27.50;99.90
7167;DHT22;3625;51.762;14.320;2023-07-29T13:37:50;26.70;99.90
7167;DHT22;3625;51.762;14.320;2023-07-29T13:40:20;26.00;99.90
7167;DHT22;3625;51.762;14.320;2023-07-29T13:42:48;25.90;99.90
7167;DHT22;3625;51.762;14.320;2023-07-29T13:45:17;25.80;99.90
7167;DHT22;3625;51.762;14.320;2023-07-29T13:47:46;25.70;99.90
7167;DHT22;3625;51.762;14.320;2023-07-29T13:50:15;26.10;99.90
7167;DHT22;3625;51.762;14.320;2023-07-29T13:52:46;26.00;99.90
7167;DHT22;3625;51.762;14.320;2023-07-29T13:55:15;26.20;99.90
7167;DHT22;3625;51.762;14.320;2023-07-29T13:57:45;26.50;99.90
7167;DHT22;3625;51.762;14.320;2023-07-29T14:00:14;25.90;99.90
7167;DHT22;3625;51.762;14.320;2023-07-29T14:02:43;25.80;99.90
7167;DHT22;3625;51.762;14.320;2023-07-29T14:05:11;25.60;99.90
7167;DHT22;3625;51.762;14.320;2023-07-29T14:07:41;25.80;99.90
7167;DHT22;3625;51.762;14.320;2023-07-29T14:10:09;25.50;99.90
7167;DHT22;3625;51.762;14.320;2023-07-29T14:15:09;25.00;99.90
7167;DHT22;3625;51.762;14.320;2023-07-29T14:17:37;24.40;99.90
7167;DHT22;3625;51.762;14.320;2023-07-29T14:20:07;24.10;99.90
7167;DHT22;3625;51.762;14.320;2023-07-29T14:22:36;23.50;99.90
7167;DHT22;3625;51.762;14.320;2023-07-29T14:25:06;23.20;99.90
7167;DHT22;3625;51.762;14.320;2023-07-29T14:27:35;23.40;99.90
7167;DHT22;3625;51.762;14.320;2023-07-29T14:30:05;23.20;99.90
7167;DHT22;3625;51.762;14.320;2023-07-29T14:32:36;23.20;99.90
7167;DHT22;3625;51.762;14.320;2023-07-29T14:35:05;23.00;99.90
7167;DHT22;3625;51.762;14.320;2023-07-29T14:37:35;22.70;99.90
7167;DHT22;3625;51.762;14.320;2023-07-29T14:40:06;21.90;99.90
7167;DHT22;3625;51.762;14.320;2023-07-29T14:42:35;21.80;99.90
7167;DHT22;3625;51.762;14.320;2023-07-29T14:45:04;21.50;99.90
7167;DHT22;3625;51.762;14.320;2023-07-29T14:47:33;20.00;99.90
7167;DHT22;3625;51.762;14.320;2023-07-29T14:50:04;19.90;99.90
7167;DHT22;3625;51.762;14.320;2023-07-29T14:52:33;19.50;99.90
7167;DHT22;3625;51.762;14.320;2023-07-29T14:55:01;19.50;99.90
7167;DHT22;3625;51.762;14.320;2023-07-29T14:57:33;19.70;99.90
7167;DHT22;3625;51.762;14.320;2023-07-29T15:00:01;19.90;99.90
7167;DHT22;3625;51.762;14.320;2023-07-29T15:02:31;20.10;99.90
7167;DHT22;3625;51.762;14.320;2023-07-29T15:05:00;20.20;99.90
7167;DHT22;3625;51.762;14.320;2023-07-29T15:07:30;20.20;99.90
7167;DHT22;3625;51.762;14.320;2023-07-29T15:09:58;20.10;99.90
7167;DHT22;3625;51.762;14.320;2023-07-29T15:12:27;20.20;99.90
7167;DHT22;3625;51.762;14.320;2023-07-29T15:15:02;20.20;99.90
7167;DHT22;3625;51.762;14.320;2023-07-29T15:17:31;20.30;99.90
7167;DHT22;3625;51.762;14.320;2023-07-29T15:20:01;20.40;99.90
7167;DHT22;3625;51.762;14.320;2023-07-29T15:22:35;20.70;99.90
7167;DHT22;3625;51.762;14.320;2023-07-29T15:25:04;20.70;99.90
7167;DHT22;3625;51.762;14.320;2023-07-29T15:27:33;20.70;99.90
7167;DHT22;3625;51.762;14.320;2023-07-29T15:30:06;20.90;99.90
7167;DHT22;3625;51.762;14.320;2023-07-29T15:32:35;21.10;99.90
7167;DHT22;3625;51.762;14.320;2023-07-29T15:35:04;21.30;99.90
7167;DHT22;3625;51.762;14.320;2023-07-29T15:37:34;21.50;99.90
7167;DHT22;3625;51.762;14.320;2023-07-29T15:40:03;22.10;99.90
7167;DHT22;3625;51.762;14.320;2023-07-29T15:42:33;23.00;99.90
7167;DHT22;3625;51.762;14.320;2023-07-29T15:45:02;23.80;99.90
7167;DHT22;3625;51.762;14.320;2023-07-29T15:47:31;24.50;99.90
7167;DHT22;3625;51.762;14.320;2023-07-29T15:49:59;24.60;99.90
7167;DHT22;3625;51.762;14.320;2023-07-29T15:52:28;24.60;99.90
7167;DHT22;3625;51.762;14.320;2023-07-29T15:54:58;24.00;99.90
7167;DHT22;3625;51.762;14.320;2023-07-29T15:57:27;23.80;99.90
7167;DHT22;3625;51.762;14.320;2023-07-29T15:59:56;23.90;99.90
7167;DHT22;3625;51.762;14.320;2023-07-29T16:02:25;23.90;99.90
7167;DHT22;3625;51.762;14.320;2023-07-29T16:04:54;23.60;99.90
7167;DHT22;3625;51.762;14.320;2023-07-29T16:07:22;23.00;99.90
7167;DHT22;3625;51.762;14.320;2023-07-29T16:09:51;22.50;99.90
7167;DHT22;3625;51.762;14.320;2023-07-29T16:12:21;22.00;99.90
7167;DHT22;3625;51.762;14.320;2023-07-29T16:14:50;21.70;99.90
7167;DHT22;3625;51.762;14.320;2023-07-29T16:17:18;21.50;99.90
7167;DHT22;3625;51.762;14.320;2023-07-29T16:19:55;21.40;99.90
7167;DHT22;3625;51.762;14.320;2023-07-29T16:22:24;21.30;99.90
7167;DHT22;3625;51.762;14.320;2023-07-29T16:24:53;20.80;99.90
7167;DHT22;3625;51.762;14.320;2023-07-29T16:27:23;21.30;99.90
7167;DHT22;3625;51.762;14.320;2023-07-29T16:29:52;21.30;99.90
7167;DHT22;3625;51.762;14.320;2023-07-29T16:32:21;21.20;99.90
7167;DHT22;3625;51.762;14.320;2023-07-29T16:34:50;21.20;99.90
7167;DHT22;3625;51.762;14.320;2023-07-29T16:37:18;21.20;99.90
7167;DHT22;3625;51.762;14.320;2023-07-29T16:39:47;21.10;99.90
7167;DHT22;3625;51.762;14.320;2023-07-29T16:42:15;21.10;99.90
7167;DHT22;3625;51.762;14.320;2023-07-29T16:44:45;21.10;99.90
7167;DHT22;3625;51.762;14.320;2023-07-29T16:47:14;20.90;99.90
7167;DHT22;3625;51.762;14.320;2023-07-29T16:49:43;20.80;99.90
7167;DHT22;3625;51.762;14.320;2023-07-29T16:52:12;20.70;99.90
7167;DHT22;3625;51.762;14.320;2023-07-29T16:54:40;20.60;99.90
7167;DHT22;3625;51.762;14.320;2023-07-29T16:57:09;20.50;99.90
7167;DHT22;3625;51.762;14.320;2023-07-29T16:59:38;20.40;99.90
7167;DHT22;3625;51.762;14.320;2023-07-29T17:02:07;20.30;99.90
7167;DHT22;3625;51.762;14.320;2023-07-29T17:04:36;20.20;99.90
7167;DHT22;3625;51.762;14.320;2023-07-29T17:07:05;20.10;99.90
7167;DHT22;3625;51.762;14.320;2023-07-29T17:09:34;20.10;99.90
7167;DHT22;3625;51.762;14.320;2023-07-29T17:12:04;20.10;99.90
7167;DHT22;3625;51.762;14.320;2023-07-29T17:14:33;20.00;99.90
7167;DHT22;3625;51.762;14.320;2023-07-29T17:17:02;20.00;99.90
7167;DHT22;3625;51.762;14.320;2023-07-29T17:19:32;20.00;99.90
7167;DHT22;3625;51.762;14.320;2023-07-29T17:22:01;20.00;99.90
7167;DHT22;3625;51.762;14.320;2023-07-29T17:24:30;19.90;99.90
7167;DHT22;3625;51.762;14.320;2023-07-29T17:26:58;19.90;99.90
7167;DHT22;3625;51.762;14.320;2023-07-29T17:29:27;19.90;99.90
7167;DHT22;3625;51.762;14.320;2023-07-29T17:31:55;19.90;99.90
7167;DHT22;3625;51.762;14.320;2023-07-29T17:34:24;19.80;99.90
7167;DHT22;3625;51.762;14.320;2023-07-29T17:37:09;19.90;99.90
7167;DHT22;3625;51.762;14.320;2023-07-29T17:39:48;19.80;99.90
7167;DHT22;3625;51.762;14.320;2023-07-29T17:42:17;19.80;99.90
7167;DHT22;3625;51.762;14.320;2023-07-29T17:44:45;19.80;99.90
7167;DHT22;3625;51.762;14.320;2023-07-29T17:47:14;19.70;99.90
7167;DHT22;3625;51.762;14.320;2023-07-29T17:49:45;19.70;99.90
7167;DHT22;3625;51.762;14.320;2023-07-29T17:52:15;19.60;99.90
7167;DHT22;3625;51.762;14.320;2023-07-29T17:54:46;19.60;99.90
7167;DHT22;3625;51.762;14.320;2023-07-29T17:57:20;19.50;99.90
7167;DHT22;3625;51.762;14.320;2023-07-29T17:59:56;19.80;99.90
7167;DHT22;3625;51.762;14.320;2023-07-29T18:02:30;20.40;99.90